createdAt,value
2023-03-23T15:58:33.830Z,1.90
2023-03-23T16:02:55.526Z,1.80
2023-03-23T16:07:38.096Z,1.92
2023-03-23T16:11:39.874Z,3.20
2023-03-23T16:15:42.101Z,2.67
2023-03-23T16:19:43.807Z,2.83
2023-03-23T16:23:46.300Z,2.20
2023-03-23T16:28:14.654Z,3.13
2023-03-23T16:32:16.201Z,1.95
2023-03-23T16:36:17.728Z,2.33
2023-03-23T16:40:39.377Z,1.85
2023-03-23T16:44:40.887Z,1.65
2023-03-23T16:48:43.163Z,2.47
2023-03-23T16:53:05.625Z,2.63
2023-03-23T16:57:07.659Z,1.85
2023-03-23T17:01:09.859Z,1.75
2023-03-23T17:05:11.989Z,1.48
2023-03-23T17:09:13.484Z,1.73
2023-03-23T17:13:15.362Z,3.35
2023-03-23T17:17:16.898Z,2.85
2023-03-23T17:21:20.506Z,2.38
2023-03-23T17:25:22.095Z,2.08
2023-03-23T17:29:23.665Z,1.92
2023-03-23T17:33:25.228Z,2.72
2023-03-23T17:37:26.919Z,3.35
2023-03-23T17:41:28.494Z,1.40
2023-03-23T17:45:30.680Z,1.90
2023-03-23T17:49:32.704Z,4.20
2023-03-23T17:53:38.228Z,3.75
2023-03-23T17:57:39.891Z,4.03
2023-03-23T18:01:41.397Z,2.30
2023-03-23T18:05:43.123Z,3.28
2023-03-23T18:09:45.743Z,3.15
2023-03-23T18:13:47.711Z,3.33
2023-03-23T18:17:51.071Z,3.10
2023-03-23T18:21:52.714Z,3.42
2023-03-23T18:25:55.122Z,2.83
2023-03-23T18:29:56.754Z,3.15
2023-03-23T18:33:58.471Z,5.05
2023-03-23T18:38:00.426Z,4.03
2023-03-23T18:42:02.032Z,3.85
2023-03-23T18:46:04.462Z,3.72
2023-03-23T18:50:08.112Z,3.83
2023-03-23T18:54:09.634Z,4.32
2023-03-23T18:58:13.096Z,3.75
2023-03-23T19:02:18.180Z,6.93
2023-03-23T19:06:25.703Z,3.58
2023-03-23T19:10:28.334Z,5.05
2023-03-23T19:14:30.012Z,6.95
2023-03-23T19:18:31.831Z,5.10
2023-03-23T19:22:33.330Z,3.67
2023-03-23T19:26:43.448Z,4.28
2023-03-23T19:30:47.261Z,4.68
2023-03-23T19:34:51.183Z,3.65
2023-03-23T19:38:54.409Z,3.83
2023-03-23T19:42:57.410Z,6.07
2023-03-23T19:47:00.171Z,6.47
2023-03-23T19:51:02.374Z,4.75
2023-03-23T19:55:04.285Z,4.03
2023-03-23T19:59:08.533Z,4.50
2023-03-23T20:03:10.218Z,5.57
2023-03-23T20:07:12.557Z,5.85
2023-03-23T20:11:17.549Z,5.55
2023-03-23T20:15:19.286Z,6.15
2023-03-23T20:19:21.497Z,5.47
2023-03-23T20:23:23.075Z,5.40
2023-03-23T20:27:25.481Z,5.45
2023-03-23T20:31:30.272Z,11.52
2023-03-23T20:35:31.865Z,23.70
2023-03-23T20:39:33.484Z,8.05
2023-03-23T20:43:35.704Z,7.97
2023-03-23T20:47:38.451Z,9.80
2023-03-23T20:51:40.075Z,9.27
2023-03-23T20:55:41.643Z,7.85
2023-03-23T20:59:43.272Z,7.68
2023-03-23T21:04:04.965Z,7.75
2023-03-23T21:08:06.722Z,7.60
2023-03-23T21:12:29.161Z,6.60
2023-03-23T21:16:34.240Z,5.68
2023-03-23T21:20:39.754Z,5.60
2023-03-23T21:25:02.405Z,6.65
2023-03-23T21:29:24.690Z,4.72
2023-03-23T21:33:26.835Z,5.90
2023-03-23T21:38:11.427Z,4.95
2023-03-23T21:42:33.304Z,4.63
2023-03-23T21:46:34.913Z,3.85
2023-03-23T21:50:57.242Z,4.75
2023-03-23T21:55:06.144Z,3.33
2023-03-23T21:59:07.899Z,4.15
2023-03-23T22:03:09.748Z,4.05
2023-03-23T22:07:12.656Z,5.82
2023-03-23T22:11:31.573Z,4.47
2023-03-23T22:15:40.278Z,4.22
2023-03-23T22:19:42.311Z,8.13
2023-03-23T22:23:45.804Z,3.35
2023-03-23T22:27:47.601Z,3.72
2023-03-23T22:31:49.365Z,3.10
2023-03-23T22:35:51.044Z,4.45
2023-03-23T22:39:52.623Z,3.60
2023-03-23T22:43:54.906Z,4.78
2023-03-23T22:48:16.795Z,3.83
2023-03-23T22:52:18.517Z,3.83
2023-03-23T22:56:21.309Z,4.50
2023-03-23T23:00:46.470Z,4.05
2023-03-23T23:04:48.271Z,4.28
2023-03-23T23:08:49.918Z,3.60
2023-03-23T23:12:53.964Z,4.03
2023-03-23T23:16:55.537Z,3.83
2023-03-23T23:20:59.720Z,3.25
2023-03-23T23:25:01.324Z,4.78
2023-03-23T23:29:03.998Z,4.55
2023-03-23T23:33:09.149Z,4.45
2023-03-23T23:37:10.984Z,3.50
2023-03-23T23:41:17.032Z,3.90
2023-03-23T23:45:39.564Z,5.15
2023-03-23T23:49:46.709Z,6.60
2023-03-23T23:54:08.232Z,5.93
2023-03-23T23:58:09.881Z,4.22
